ストックホルム/アーランダ の空港の天気 - METARとTAF

ストックホルム・アーランダ空港 ( ESSA / ARN ) - スウェーデン ストックホルム
飛行場実況気象(Metar)
観測時間08/11 08:50 CEST (08/11 06:50 UTC)
風向・風速北北東 5m/s
視程10km以上
天気現象
なし
気温16℃
湿度77%
気圧1026hPa
METARESSA 110650Z 02009KT CAVOK 16/12 Q1026 NOSIG
過去の天気等 Google飛行場航空写真 Wunderground天気予報

過去48時間のMETAR

飛行場予報(TAF)
発表時間: 8/11 07:30 CEST (8/11 05:30 UTC)
予報対象時間: 11日8時 CEST ~ 12日8時 CEST
風向・風速北西 2m/s
視程10km以上
なし
11日9時 CEST ~ 11日11時 CEST に徐々に
風向・風速北北東 5m/s
11日21時 CEST ~ 11日23時 CEST に徐々に
風向・風速不定 1m/s
TAF ESSA 110530Z 1106/1206 32004KT CAVOK
BECMG 1107/1109 02010KT
BECMG 1119/1121 VRB02KT